sensor_id;sensor_type;location;lat;lon;timestamp;pressure;altitude;pressure_sealevel;temperature;humidity
60642;BME280;46837;52.446;-1.930;2023-12-28T00:00:09;98308.64;;;8.82;86.16
60642;BME280;46837;52.446;-1.930;2023-12-28T00:01:09;98326.24;;;8.80;86.18
60642;BME280;46837;52.446;-1.930;2023-12-28T00:02:09;98321.41;;;8.73;86.05
60642;BME280;46837;52.446;-1.930;2023-12-28T00:03:09;98317.87;;;8.74;86.05
60642;BME280;46837;52.446;-1.930;2023-12-28T00:04:09;98331.02;;;8.72;86.33
60642;BME280;46837;52.446;-1.930;2023-12-28T00:05:09;98330.42;;;8.72;86.45
60642;BME280;46837;52.446;-1.930;2023-12-28T00:06:09;98345.79;;;8.68;86.82
60642;BME280;46837;52.446;-1.930;2023-12-28T00:07:09;98332.61;;;8.68;87.07
60642;BME280;46837;52.446;-1.930;2023-12-28T00:08:09;98336.73;;;8.70;87.16
60642;BME280;46837;52.446;-1.930;2023-12-28T00:09:09;98338.57;;;8.70;87.35
60642;BME280;46837;52.446;-1.930;2023-12-28T00:10:09;98344.70;;;8.71;87.55
60642;BME280;46837;52.446;-1.930;2023-12-28T00:11:09;98329.98;;;8.72;87.63
60642;BME280;46837;52.446;-1.930;2023-12-28T00:12:09;98333.38;;;8.67;87.87
60642;BME280;46837;52.446;-1.930;2023-12-28T00:13:09;98320.30;;;8.66;87.91
60642;BME280;46837;52.446;-1.930;2023-12-28T00:14:09;98320.13;;;8.66;87.86
60642;BME280;46837;52.446;-1.930;2023-12-28T00:15:09;98317.00;;;8.64;87.93
60642;BME280;46837;52.446;-1.930;2023-12-28T00:16:09;98311.03;;;8.60;88.00
60642;BME280;46837;52.446;-1.930;2023-12-28T00:17:09;98308.50;;;8.60;88.21
60642;BME280;46837;52.446;-1.930;2023-12-28T00:18:09;98319.80;;;8.57;88.16
60642;BME280;46837;52.446;-1.930;2023-12-28T00:19:09;98308.98;;;8.54;88.13
60642;BME280;46837;52.446;-1.930;2023-12-28T00:20:09;98299.00;;;8.52;87.64
60642;BME280;46837;52.446;-1.930;2023-12-28T00:21:09;98304.34;;;8.55;87.18
60642;BME280;46837;52.446;-1.930;2023-12-28T00:22:09;98310.55;;;8.57;87.34
60642;BME280;46837;52.446;-1.930;2023-12-28T00:23:09;98318.04;;;8.59;87.55
60642;BME280;46837;52.446;-1.930;2023-12-28T00:24:09;98322.28;;;8.59;87.66
60642;BME280;46837;52.446;-1.930;2023-12-28T00:25:09;98315.04;;;8.61;87.76
60642;BME280;46837;52.446;-1.930;2023-12-28T00:26:09;98323.81;;;8.64;87.80
60642;BME280;46837;52.446;-1.930;2023-12-28T00:27:09;98313.46;;;8.64;87.78
60642;BME280;46837;52.446;-1.930;2023-12-28T00:28:09;98314.64;;;8.65;87.75
60642;BME280;46837;52.446;-1.930;2023-12-28T00:29:09;98314.95;;;8.67;87.69
60642;BME280;46837;52.446;-1.930;2023-12-28T00:30:09;98316.93;;;8.71;87.66
60642;BME280;46837;52.446;-1.930;2023-12-28T00:31:10;98320.57;;;8.71;87.54
60642;BME280;46837;52.446;-1.930;2023-12-28T00:32:09;98310.09;;;8.73;87.28
60642;BME280;46837;52.446;-1.930;2023-12-28T00:33:09;98322.73;;;8.75;86.97
60642;BME280;46837;52.446;-1.930;2023-12-28T00:34:09;98318.51;;;8.77;86.68
60642;BME280;46837;52.446;-1.930;2023-12-28T00:35:09;98320.44;;;8.78;86.51
60642;BME280;46837;52.446;-1.930;2023-12-28T00:36:09;98328.38;;;8.79;86.18
60642;BME280;46837;52.446;-1.930;2023-12-28T00:37:09;98314.38;;;8.79;85.91
60642;BME280;46837;52.446;-1.930;2023-12-28T00:38:09;98311.49;;;8.79;85.89
60642;BME280;46837;52.446;-1.930;2023-12-28T00:39:09;98309.81;;;8.81;85.66
60642;BME280;46837;52.446;-1.930;2023-12-28T00:40:09;98314.54;;;8.79;85.38
60642;BME280;46837;52.446;-1.930;2023-12-28T00:41:09;98310.76;;;8.83;84.93
60642;BME280;46837;52.446;-1.930;2023-12-28T00:42:09;98309.12;;;8.86;84.72
60642;BME280;46837;52.446;-1.930;2023-12-28T00:43:09;98310.69;;;8.89;84.56
60642;BME280;46837;52.446;-1.930;2023-12-28T00:44:10;98313.50;;;8.90;84.40
60642;BME280;46837;52.446;-1.930;2023-12-28T00:45:09;98306.03;;;8.91;84.26
60642;BME280;46837;52.446;-1.930;2023-12-28T00:46:09;98311.82;;;8.92;84.27
60642;BME280;46837;52.446;-1.930;2023-12-28T00:47:09;98312.35;;;8.95;84.10
60642;BME280;46837;52.446;-1.930;2023-12-28T00:48:09;98312.77;;;8.96;83.62
60642;BME280;46837;52.446;-1.930;2023-12-28T00:49:09;98312.45;;;8.96;83.25
60642;BME280;46837;52.446;-1.930;2023-12-28T00:50:09;98315.21;;;8.97;83.01
60642;BME280;46837;52.446;-1.930;2023-12-28T00:51:09;98320.18;;;8.99;82.95
60642;BME280;46837;52.446;-1.930;2023-12-28T00:52:09;98327.75;;;8.99;82.63
60642;BME280;46837;52.446;-1.930;2023-12-28T00:53:09;98322.91;;;8.96;82.38
60642;BME280;46837;52.446;-1.930;2023-12-28T00:54:09;98319.08;;;8.98;82.14
60642;BME280;46837;52.446;-1.930;2023-12-28T00:55:10;98324.96;;;8.98;81.57
60642;BME280;46837;52.446;-1.930;2023-12-28T00:56:09;98332.69;;;8.98;81.79
60642;BME280;46837;52.446;-1.930;2023-12-28T00:57:09;98291.00;;;8.93;80.79
60642;BME280;46837;52.446;-1.930;2023-12-28T00:58:09;98314.53;;;8.93;81.04
60642;BME280;46837;52.446;-1.930;2023-12-28T00:59:09;98318.11;;;8.94;80.75
60642;BME280;46837;52.446;-1.930;2023-12-28T01:00:09;98302.38;;;8.96;81.05
60642;BME280;46837;52.446;-1.930;2023-12-28T01:01:09;98306.27;;;8.92;80.76
60642;BME280;46837;52.446;-1.930;2023-12-28T01:02:09;98300.05;;;8.93;80.90
60642;BME280;46837;52.446;-1.930;2023-12-28T01:03:09;98297.06;;;8.92;80.79
60642;BME280;46837;52.446;-1.930;2023-12-28T01:04:09;98294.90;;;8.86;80.23
60642;BME280;46837;52.446;-1.930;2023-12-28T01:05:09;98302.49;;;8.91;80.39
60642;BME280;46837;52.446;-1.930;2023-12-28T01:06:09;98311.24;;;8.94;80.43
60642;BME280;46837;52.446;-1.930;2023-12-28T01:07:09;98297.69;;;8.96;80.34
60642;BME280;46837;52.446;-1.930;2023-12-28T01:08:09;98302.04;;;8.99;80.12
60642;BME280;46837;52.446;-1.930;2023-12-28T01:09:09;98307.94;;;9.04;80.04
60642;BME280;46837;52.446;-1.930;2023-12-28T01:10:09;98317.68;;;9.05;79.75
60642;BME280;46837;52.446;-1.930;2023-12-28T01:11:09;98318.27;;;9.07;79.32
60642;BME280;46837;52.446;-1.930;2023-12-28T01:12:09;98326.04;;;9.14;79.26
60642;BME280;46837;52.446;-1.930;2023-12-28T01:13:09;98332.24;;;9.17;79.17
60642;BME280;46837;52.446;-1.930;2023-12-28T01:14:09;98320.55;;;9.21;78.59
60642;BME280;46837;52.446;-1.930;2023-12-28T01:15:09;98317.54;;;9.23;78.51
60642;BME280;46837;52.446;-1.930;2023-12-28T01:16:09;98326.80;;;9.29;78.45
60642;BME280;46837;52.446;-1.930;2023-12-28T01:17:09;98322.07;;;9.31;78.18
60642;BME280;46837;52.446;-1.930;2023-12-28T01:18:09;98325.42;;;9.33;77.54
60642;BME280;46837;52.446;-1.930;2023-12-28T01:19:09;98332.98;;;9.39;77.14
60642;BME280;46837;52.446;-1.930;2023-12-28T01:20:09;98331.09;;;9.40;77.21
60642;BME280;46837;52.446;-1.930;2023-12-28T01:21:09;98333.08;;;9.41;77.29
60642;BME280;46837;52.446;-1.930;2023-12-28T01:22:09;98330.93;;;9.45;77.09
60642;BME280;46837;52.446;-1.930;2023-12-28T01:23:09;98335.37;;;9.46;76.62
60642;BME280;46837;52.446;-1.930;2023-12-28T01:24:09;98332.74;;;9.49;76.65
60642;BME280;46837;52.446;-1.930;2023-12-28T01:25:09;98316.86;;;9.50;76.75
60642;BME280;46837;52.446;-1.930;2023-12-28T01:26:12;98308.09;;;9.50;76.53
60642;BME280;46837;52.446;-1.930;2023-12-28T01:27:09;98287.75;;;9.52;76.31
60642;BME280;46837;52.446;-1.930;2023-12-28T01:28:09;98289.70;;;9.55;76.12
60642;BME280;46837;52.446;-1.930;2023-12-28T01:29:09;98299.70;;;9.57;75.93
60642;BME280;46837;52.446;-1.930;2023-12-28T01:30:09;98293.82;;;9.56;75.80
60642;BME280;46837;52.446;-1.930;2023-12-28T01:31:09;98300.23;;;9.57;75.75
60642;BME280;46837;52.446;-1.930;2023-12-28T01:32:09;98302.41;;;9.59;75.93
60642;BME280;46837;52.446;-1.930;2023-12-28T01:33:09;98325.14;;;9.62;75.84
60642;BME280;46837;52.446;-1.930;2023-12-28T01:34:09;98358.29;;;9.60;75.50
60642;BME280;46837;52.446;-1.930;2023-12-28T01:35:09;98380.09;;;9.65;75.54
60642;BME280;46837;52.446;-1.930;2023-12-28T01:37:09;98376.54;;;9.66;76.55
60642;BME280;46837;52.446;-1.930;2023-12-28T01:38:09;98374.43;;;9.63;76.78
60642;BME280;46837;52.446;-1.930;2023-12-28T01:39:09;98365.77;;;9.58;77.46
60642;BME280;46837;52.446;-1.930;2023-12-28T01:40:09;98374.20;;;9.56;77.76
60642;BME280;46837;52.446;-1.930;2023-12-28T01:41:09;98379.70;;;9.49;78.56
60642;BME280;46837;52.446;-1.930;2023-12-28T01:42:09;98371.23;;;9.50;78.70
60642;BME280;46837;52.446;-1.930;2023-12-28T01:43:09;98365.87;;;9.43;79.06
60642;BME280;46837;52.446;-1.930;2023-12-28T01:44:09;98361.61;;;9.38;79.71
60642;BME280;46837;52.446;-1.930;2023-12-28T01:45:09;98358.87;;;9.38;79.73
60642;BME280;46837;52.446;-1.930;2023-12-28T01:46:10;98358.78;;;9.35;79.79
60642;BME280;46837;52.446;-1.930;2023-12-28T01:47:09;98374.86;;;9.33;79.93
60642;BME280;46837;52.446;-1.930;2023-12-28T01:48:09;98356.59;;;9.30;80.08
60642;BME280;46837;52.446;-1.930;2023-12-28T01:49:09;98365.08;;;9.29;80.22
60642;BME280;46837;52.446;-1.930;2023-12-28T01:50:09;98373.66;;;9.27;80.55
60642;BME280;46837;52.446;-1.930;2023-12-28T01:51:09;98374.90;;;9.26;80.72
60642;BME280;46837;52.446;-1.930;2023-12-28T01:52:09;98381.28;;;9.28;80.75
60642;BME280;46837;52.446;-1.930;2023-12-28T01:53:09;98381.90;;;9.27;80.80
60642;BME280;46837;52.446;-1.930;2023-12-28T01:54:09;98376.58;;;9.26;80.97
60642;BME280;46837;52.446;-1.930;2023-12-28T01:55:09;98370.14;;;9.29;81.16
60642;BME280;46837;52.446;-1.930;2023-12-28T01:56:09;98350.90;;;9.29;81.38
60642;BME280;46837;52.446;-1.930;2023-12-28T01:57:09;98357.58;;;9.27;81.58
60642;BME280;46837;52.446;-1.930;2023-12-28T01:58:09;98353.54;;;9.33;81.52
60642;BME280;46837;52.446;-1.930;2023-12-28T01:59:09;98368.24;;;9.37;81.66
60642;BME280;46837;52.446;-1.930;2023-12-28T02:00:09;98355.95;;;9.35;81.98
60642;BME280;46837;52.446;-1.930;2023-12-28T02:01:09;98366.73;;;9.36;81.93
60642;BME280;46837;52.446;-1.930;2023-12-28T02:02:09;98371.30;;;9.38;82.08
60642;BME280;46837;52.446;-1.930;2023-12-28T02:03:09;98367.65;;;9.36;82.23
60642;BME280;46837;52.446;-1.930;2023-12-28T02:04:09;98385.32;;;9.38;82.31
60642;BME280;46837;52.446;-1.930;2023-12-28T02:05:09;98375.72;;;9.38;82.39
60642;BME280;46837;52.446;-1.930;2023-12-28T02:06:09;98385.46;;;9.39;82.35
60642;BME280;46837;52.446;-1.930;2023-12-28T02:07:09;98392.67;;;9.36;82.43
60642;BME280;46837;52.446;-1.930;2023-12-28T02:08:09;98387.71;;;9.36;82.42
60642;BME280;46837;52.446;-1.930;2023-12-28T02:09:09;98394.19;;;9.37;82.54
60642;BME280;46837;52.446;-1.930;2023-12-28T02:10:09;98366.74;;;9.35;82.43
60642;BME280;46837;52.446;-1.930;2023-12-28T02:11:09;98377.55;;;9.40;82.63
60642;BME280;46837;52.446;-1.930;2023-12-28T02:12:09;98389.13;;;9.38;82.53
60642;BME280;46837;52.446;-1.930;2023-12-28T02:13:09;98392.21;;;9.42;82.53
60642;BME280;46837;52.446;-1.930;2023-12-28T02:14:09;98417.97;;;9.38;82.60
60642;BME280;46837;52.446;-1.930;2023-12-28T02:15:09;98432.61;;;9.42;82.55
60642;BME280;46837;52.446;-1.930;2023-12-28T02:16:13;98436.00;;;9.42;82.29
60642;BME280;46837;52.446;-1.930;2023-12-28T02:17:12;98428.63;;;9.40;82.08
60642;BME280;46837;52.446;-1.930;2023-12-28T02:18:12;98414.88;;;9.46;82.11
60642;BME280;46837;52.446;-1.930;2023-12-28T02:20:09;98423.98;;;9.43;81.92
60642;BME280;46837;52.446;-1.930;2023-12-28T02:21:09;98414.56;;;9.40;81.51
60642;BME280;46837;52.446;-1.930;2023-12-28T02:22:09;98431.04;;;9.39;81.39
60642;BME280;46837;52.446;-1.930;2023-12-28T02:23:09;98417.42;;;9.38;81.05
60642;BME280;46837;52.446;-1.930;2023-12-28T02:24:09;98417.16;;;9.37;80.94
60642;BME280;46837;52.446;-1.930;2023-12-28T02:25:11;98413.93;;;9.36;81.03
60642;BME280;46837;52.446;-1.930;2023-12-28T02:26:09;98420.67;;;9.34;81.01
60642;BME280;46837;52.446;-1.930;2023-12-28T02:27:09;98416.95;;;9.32;80.96
60642;BME280;46837;52.446;-1.930;2023-12-28T02:28:09;98430.01;;;9.28;80.71
60642;BME280;46837;52.446;-1.930;2023-12-28T02:29:09;98418.63;;;9.25;80.41
60642;BME280;46837;52.446;-1.930;2023-12-28T02:30:09;98424.28;;;9.26;80.35
60642;BME280;46837;52.446;-1.930;2023-12-28T02:31:09;98418.32;;;9.23;80.32
60642;BME280;46837;52.446;-1.930;2023-12-28T02:32:09;98427.80;;;9.23;80.12
60642;BME280;46837;52.446;-1.930;2023-12-28T02:33:15;98426.77;;;9.21;80.09
60642;BME280;46837;52.446;-1.930;2023-12-28T02:34:14;98434.26;;;9.23;80.13
60642;BME280;46837;52.446;-1.930;2023-12-28T02:35:17;98429.96;;;9.22;79.65
60642;BME280;46837;52.446;-1.930;2023-12-28T02:36:09;98416.51;;;9.19;79.15
60642;BME280;46837;52.446;-1.930;2023-12-28T02:37:09;98425.69;;;9.20;78.52
60642;BME280;46837;52.446;-1.930;2023-12-28T02:38:13;98437.29;;;9.23;78.06
60642;BME280;46837;52.446;-1.930;2023-12-28T02:39:09;98457.71;;;9.27;77.67
60642;BME280;46837;52.446;-1.930;2023-12-28T02:40:09;98435.09;;;9.33;76.82
60642;BME280;46837;52.446;-1.930;2023-12-28T02:41:09;98441.48;;;9.35;76.52
60642;BME280;46837;52.446;-1.930;2023-12-28T02:42:09;98440.12;;;9.35;75.79
60642;BME280;46837;52.446;-1.930;2023-12-28T02:43:09;98434.25;;;9.37;76.03
60642;BME280;46837;52.446;-1.930;2023-12-28T02:44:09;98434.97;;;9.39;75.84
60642;BME280;46837;52.446;-1.930;2023-12-28T02:45:09;98432.45;;;9.40;75.90
60642;BME280;46837;52.446;-1.930;2023-12-28T02:46:09;98429.58;;;9.38;75.08
60642;BME280;46837;52.446;-1.930;2023-12-28T02:47:09;98452.59;;;9.41;74.32
60642;BME280;46837;52.446;-1.930;2023-12-28T02:48:09;98448.77;;;9.39;74.43
60642;BME280;46837;52.446;-1.930;2023-12-28T02:49:09;98436.89;;;9.38;73.09
60642;BME280;46837;52.446;-1.930;2023-12-28T02:50:09;98449.04;;;9.36;71.39
60642;BME280;46837;52.446;-1.930;2023-12-28T02:51:09;98449.90;;;9.42;72.02
60642;BME280;46837;52.446;-1.930;2023-12-28T02:52:09;98455.62;;;9.42;71.58
60642;BME280;46837;52.446;-1.930;2023-12-28T02:53:09;98450.54;;;9.42;71.29
60642;BME280;46837;52.446;-1.930;2023-12-28T02:54:09;98451.35;;;9.43;71.69
60642;BME280;46837;52.446;-1.930;2023-12-28T02:55:09;98453.32;;;9.42;71.63
60642;BME280;46837;52.446;-1.930;2023-12-28T02:56:09;98471.65;;;9.42;71.49
60642;BME280;46837;52.446;-1.930;2023-12-28T02:57:09;98427.73;;;9.38;71.30
60642;BME280;46837;52.446;-1.930;2023-12-28T02:58:09;98462.89;;;9.38;71.40
60642;BME280;46837;52.446;-1.930;2023-12-28T02:59:09;98460.38;;;9.41;71.60
60642;BME280;46837;52.446;-1.930;2023-12-28T03:00:09;98470.89;;;9.41;71.42
60642;BME280;46837;52.446;-1.930;2023-12-28T03:01:09;98470.53;;;9.38;71.18
60642;BME280;46837;52.446;-1.930;2023-12-28T03:02:09;98476.33;;;9.43;71.60
60642;BME280;46837;52.446;-1.930;2023-12-28T03:03:09;98471.64;;;9.45;71.65
60642;BME280;46837;52.446;-1.930;2023-12-28T03:04:09;98473.66;;;9.44;71.49
60642;BME280;46837;52.446;-1.930;2023-12-28T03:05:09;98470.84;;;9.48;71.87
60642;BME280;46837;52.446;-1.930;2023-12-28T03:06:09;98468.62;;;9.47;72.28
60642;BME280;46837;52.446;-1.930;2023-12-28T03:07:09;98471.19;;;9.44;72.17
60642;BME280;46837;52.446;-1.930;2023-12-28T03:08:09;98466.68;;;9.45;72.31
60642;BME280;46837;52.446;-1.930;2023-12-28T03:09:09;98481.50;;;9.45;72.27
60642;BME280;46837;52.446;-1.930;2023-12-28T03:10:09;98477.07;;;9.47;72.62
60642;BME280;46837;52.446;-1.930;2023-12-28T03:11:09;98483.25;;;9.46;72.41
60642;BME280;46837;52.446;-1.930;2023-12-28T03:12:09;98489.16;;;9.48;72.48
60642;BME280;46837;52.446;-1.930;2023-12-28T03:13:09;98484.49;;;9.49;72.52
60642;BME280;46837;52.446;-1.930;2023-12-28T03:14:09;98484.23;;;9.46;72.70
60642;BME280;46837;52.446;-1.930;2023-12-28T03:15:09;98486.58;;;9.45;73.08
60642;BME280;46837;52.446;-1.930;2023-12-28T03:16:09;98496.19;;;9.42;73.02
60642;BME280;46837;52.446;-1.930;2023-12-28T03:17:09;98465.21;;;9.43;72.89
60642;BME280;46837;52.446;-1.930;2023-12-28T03:18:09;98501.35;;;9.43;72.83
60642;BME280;46837;52.446;-1.930;2023-12-28T03:19:09;98492.18;;;9.43;73.00
60642;BME280;46837;52.446;-1.930;2023-12-28T03:20:09;98492.94;;;9.37;73.09
60642;BME280;46837;52.446;-1.930;2023-12-28T03:21:09;98491.00;;;9.40;73.36
60642;BME280;46837;52.446;-1.930;2023-12-28T03:22:09;98493.36;;;9.39;73.47
60642;BME280;46837;52.446;-1.930;2023-12-28T03:23:09;98493.40;;;9.39;73.65
60642;BME280;46837;52.446;-1.930;2023-12-28T03:24:09;98489.00;;;9.39;74.06
60642;BME280;46837;52.446;-1.930;2023-12-28T03:25:09;98501.90;;;9.42;74.12
60642;BME280;46837;52.446;-1.930;2023-12-28T03:26:09;98499.53;;;9.41;74.22
60642;BME280;46837;52.446;-1.930;2023-12-28T03:27:09;98503.72;;;9.39;74.54
60642;BME280;46837;52.446;-1.930;2023-12-28T03:28:09;98505.80;;;9.37;74.69
60642;BME280;46837;52.446;-1.930;2023-12-28T03:29:09;98495.97;;;9.39;74.89
60642;BME280;46837;52.446;-1.930;2023-12-28T03:30:09;98512.77;;;9.38;75.17
60642;BME280;46837;52.446;-1.930;2023-12-28T03:31:09;98500.73;;;9.37;75.41
60642;BME280;46837;52.446;-1.930;2023-12-28T03:32:09;98505.33;;;9.40;75.33
60642;BME280;46837;52.446;-1.930;2023-12-28T03:33:09;98513.06;;;9.44;75.42
60642;BME280;46837;52.446;-1.930;2023-12-28T03:34:09;98517.68;;;9.47;75.38
60642;BME280;46837;52.446;-1.930;2023-12-28T03:35:09;98515.07;;;9.47;75.57
60642;BME280;46837;52.446;-1.930;2023-12-28T03:36:09;98514.14;;;9.49;75.62
60642;BME280;46837;52.446;-1.930;2023-12-28T03:37:09;98518.82;;;9.50;75.54
60642;BME280;46837;52.446;-1.930;2023-12-28T03:38:09;98526.11;;;9.54;75.54
60642;BME280;46837;52.446;-1.930;2023-12-28T03:39:09;98532.16;;;9.54;75.52
60642;BME280;46837;52.446;-1.930;2023-12-28T03:40:09;98517.39;;;9.54;75.67
60642;BME280;46837;52.446;-1.930;2023-12-28T03:41:16;98531.48;;;9.52;75.72
60642;BME280;46837;52.446;-1.930;2023-12-28T03:42:09;98525.11;;;9.52;75.70
60642;BME280;46837;52.446;-1.930;2023-12-28T03:43:09;98498.56;;;9.49;75.59
60642;BME280;46837;52.446;-1.930;2023-12-28T03:44:09;98526.26;;;9.46;75.87
60642;BME280;46837;52.446;-1.930;2023-12-28T03:45:09;98529.89;;;9.48;75.89
60642;BME280;46837;52.446;-1.930;2023-12-28T03:46:09;98538.60;;;9.44;75.67
60642;BME280;46837;52.446;-1.930;2023-12-28T03:47:09;98531.26;;;9.47;75.68
60642;BME280;46837;52.446;-1.930;2023-12-28T03:48:09;98518.61;;;9.50;75.57
60642;BME280;46837;52.446;-1.930;2023-12-28T03:49:09;98540.59;;;9.52;75.66
60642;BME280;46837;52.446;-1.930;2023-12-28T03:50:09;98523.19;;;9.50;75.62
60642;BME280;46837;52.446;-1.930;2023-12-28T03:51:09;98542.00;;;9.50;75.72
60642;BME280;46837;52.446;-1.930;2023-12-28T03:52:09;98538.09;;;9.44;75.72
60642;BME280;46837;52.446;-1.930;2023-12-28T03:53:09;98532.52;;;9.47;75.80
60642;BME280;46837;52.446;-1.930;2023-12-28T03:54:09;98545.72;;;9.46;75.66
60642;BME280;46837;52.446;-1.930;2023-12-28T03:55:09;98545.12;;;9.49;75.71
60642;BME280;46837;52.446;-1.930;2023-12-28T03:56:17;98543.47;;;9.48;75.87
60642;BME280;46837;52.446;-1.930;2023-12-28T03:57:09;98542.18;;;9.49;75.79
60642;BME280;46837;52.446;-1.930;2023-12-28T03:58:09;98565.68;;;9.46;75.86
60642;BME280;46837;52.446;-1.930;2023-12-28T03:59:09;98543.21;;;9.47;75.88
60642;BME280;46837;52.446;-1.930;2023-12-28T04:00:09;98555.70;;;9.46;75.98
60642;BME280;46837;52.446;-1.930;2023-12-28T04:01:09;98553.43;;;9.48;76.13
60642;BME280;46837;52.446;-1.930;2023-12-28T04:02:09;98557.06;;;9.47;76.18
60642;BME280;46837;52.446;-1.930;2023-12-28T04:03:09;98565.62;;;9.49;76.15
60642;BME280;46837;52.446;-1.930;2023-12-28T04:04:09;98561.98;;;9.48;76.32
60642;BME280;46837;52.446;-1.930;2023-12-28T04:05:09;98568.19;;;9.51;76.38
60642;BME280;46837;52.446;-1.930;2023-12-28T04:06:09;98544.30;;;9.44;76.67
60642;BME280;46837;52.446;-1.930;2023-12-28T04:07:10;98565.90;;;9.43;76.76
60642;BME280;46837;52.446;-1.930;2023-12-28T04:08:09;98568.23;;;9.47;76.70
60642;BME280;46837;52.446;-1.930;2023-12-28T04:09:09;98564.08;;;9.48;76.68
60642;BME280;46837;52.446;-1.930;2023-12-28T04:10:09;98554.22;;;9.47;76.75
60642;BME280;46837;52.446;-1.930;2023-12-28T04:11:09;98525.95;;;9.45;76.67
60642;BME280;46837;52.446;-1.930;2023-12-28T04:12:09;98548.15;;;9.44;76.93
60642;BME280;46837;52.446;-1.930;2023-12-28T04:13:09;98556.26;;;9.42;76.98
60642;BME280;46837;52.446;-1.930;2023-12-28T04:14:09;98551.02;;;9.40;77.02
60642;BME280;46837;52.446;-1.930;2023-12-28T04:15:09;98553.09;;;9.43;76.83
60642;BME280;46837;52.446;-1.930;2023-12-28T04:16:11;98537.33;;;9.40;76.98
60642;BME280;46837;52.446;-1.930;2023-12-28T04:17:09;98556.21;;;9.39;76.88
60642;BME280;46837;52.446;-1.930;2023-12-28T04:18:09;98546.34;;;9.40;76.76
60642;BME280;46837;52.446;-1.930;2023-12-28T04:19:09;98549.28;;;9.43;76.68
60642;BME280;46837;52.446;-1.930;2023-12-28T04:20:09;98546.29;;;9.44;76.65
60642;BME280;46837;52.446;-1.930;2023-12-28T04:21:12;98536.63;;;9.40;76.53
60642;BME280;46837;52.446;-1.930;2023-12-28T04:22:09;98552.77;;;9.42;76.50
60642;BME280;46837;52.446;-1.930;2023-12-28T04:23:09;98558.72;;;9.44;76.51
60642;BME280;46837;52.446;-1.930;2023-12-28T04:24:09;98555.94;;;9.44;76.24
60642;BME280;46837;52.446;-1.930;2023-12-28T04:25:09;98558.76;;;9.48;76.38
60642;BME280;46837;52.446;-1.930;2023-12-28T04:26:09;98546.00;;;9.49;76.12
60642;BME280;46837;52.446;-1.930;2023-12-28T04:27:09;98539.49;;;9.50;76.04
60642;BME280;46837;52.446;-1.930;2023-12-28T04:28:09;98549.76;;;9.51;76.04
60642;BME280;46837;52.446;-1.930;2023-12-28T04:29:09;98544.11;;;9.54;75.70
60642;BME280;46837;52.446;-1.930;2023-12-28T04:30:12;98555.11;;;9.57;75.59
60642;BME280;46837;52.446;-1.930;2023-12-28T04:31:09;98553.12;;;9.58;75.61
60642;BME280;46837;52.446;-1.930;2023-12-28T04:32:09;98562.08;;;9.61;75.60
60642;BME280;46837;52.446;-1.930;2023-12-28T04:33:09;98570.48;;;9.63;75.48
60642;BME280;46837;52.446;-1.930;2023-12-28T04:34:09;98571.25;;;9.63;75.49
60642;BME280;46837;52.446;-1.930;2023-12-28T04:35:09;98580.24;;;9.64;75.68
60642;BME280;46837;52.446;-1.930;2023-12-28T04:36:09;98582.69;;;9.64;75.27
60642;BME280;46837;52.446;-1.930;2023-12-28T04:37:09;98580.55;;;9.67;75.25
60642;BME280;46837;52.446;-1.930;2023-12-28T04:38:09;98581.44;;;9.69;75.21
60642;BME280;46837;52.446;-1.930;2023-12-28T04:39:09;98592.71;;;9.70;75.09
60642;BME280;46837;52.446;-1.930;2023-12-28T04:40:09;98600.46;;;9.72;75.24
60642;BME280;46837;52.446;-1.930;2023-12-28T04:41:10;98583.12;;;9.70;75.21
60642;BME280;46837;52.446;-1.930;2023-12-28T04:42:09;98585.29;;;9.71;75.25
60642;BME280;46837;52.446;-1.930;2023-12-28T04:43:09;98592.37;;;9.72;75.28
60642;BME280;46837;52.446;-1.930;2023-12-28T04:44:09;98590.50;;;9.75;75.20
60642;BME280;46837;52.446;-1.930;2023-12-28T04:45:09;98572.07;;;9.77;75.18
60642;BME280;46837;52.446;-1.930;2023-12-28T04:46:09;98590.20;;;9.76;75.66
60642;BME280;46837;52.446;-1.930;2023-12-28T04:47:09;98591.29;;;9.76;75.49
60642;BME280;46837;52.446;-1.930;2023-12-28T04:48:09;98598.59;;;9.79;75.69
60642;BME280;46837;52.446;-1.930;2023-12-28T04:49:10;98594.43;;;9.80;75.72
60642;BME280;46837;52.446;-1.930;2023-12-28T04:50:09;98593.47;;;9.83;75.65
60642;BME280;46837;52.446;-1.930;2023-12-28T04:51:09;98598.28;;;9.85;75.74
60642;BME280;46837;52.446;-1.930;2023-12-28T04:52:09;98592.33;;;9.85;75.62
60642;BME280;46837;52.446;-1.930;2023-12-28T04:53:09;98596.50;;;9.83;75.88
60642;BME280;46837;52.446;-1.930;2023-12-28T04:54:09;98593.11;;;9.81;76.05
60642;BME280;46837;52.446;-1.930;2023-12-28T04:55:09;98591.09;;;9.84;76.09
60642;BME280;46837;52.446;-1.930;2023-12-28T04:56:09;98590.40;;;9.79;76.16
60642;BME280;46837;52.446;-1.930;2023-12-28T04:57:09;98603.91;;;9.81;76.36
60642;BME280;46837;52.446;-1.930;2023-12-28T04:58:09;98597.13;;;9.82;76.49
60642;BME280;46837;52.446;-1.930;2023-12-28T04:59:09;98605.40;;;9.80;76.62
60642;BME280;46837;52.446;-1.930;2023-12-28T05:00:09;98595.35;;;9.81;76.77
60642;BME280;46837;52.446;-1.930;2023-12-28T05:01:09;98571.09;;;9.77;76.83
60642;BME280;46837;52.446;-1.930;2023-12-28T05:02:09;98600.75;;;9.75;77.10
60642;BME280;46837;52.446;-1.930;2023-12-28T05:03:09;98592.09;;;9.75;77.21
60642;BME280;46837;52.446;-1.930;2023-12-28T05:04:09;98591.86;;;9.76;77.28
60642;BME280;46837;52.446;-1.930;2023-12-28T05:05:11;98596.68;;;9.77;77.37
60642;BME280;46837;52.446;-1.930;2023-12-28T05:06:09;98585.88;;;9.77;77.31
60642;BME280;46837;52.446;-1.930;2023-12-28T05:07:09;98593.50;;;9.75;77.56
60642;BME280;46837;52.446;-1.930;2023-12-28T05:08:09;98596.00;;;9.78;77.58
60642;BME280;46837;52.446;-1.930;2023-12-28T05:09:09;98597.79;;;9.82;77.56
60642;BME280;46837;52.446;-1.930;2023-12-28T05:10:09;98604.21;;;9.86;77.56
60642;BME280;46837;52.446;-1.930;2023-12-28T05:11:09;98609.41;;;9.85;77.71
60642;BME280;46837;52.446;-1.930;2023-12-28T05:12:09;98614.04;;;9.87;77.71
60642;BME280;46837;52.446;-1.930;2023-12-28T05:13:09;98610.98;;;9.90;77.72
60642;BME280;46837;52.446;-1.930;2023-12-28T05:14:09;98609.55;;;9.89;77.88
60642;BME280;46837;52.446;-1.930;2023-12-28T05:15:09;98613.14;;;9.89;78.01
60642;BME280;46837;52.446;-1.930;2023-12-28T05:16:09;98618.23;;;9.91;78.13
60642;BME280;46837;52.446;-1.930;2023-12-28T05:17:09;98620.57;;;9.91;78.22
60642;BME280;46837;52.446;-1.930;2023-12-28T05:18:10;98630.79;;;9.90;78.39
60642;BME280;46837;52.446;-1.930;2023-12-28T05:19:09;98629.96;;;9.91;78.62